createdAt,value
2022-12-13T00:01:19.973Z,5.20
2022-12-13T00:03:46.946Z,5.95
2022-12-13T00:06:14.247Z,5.80
2022-12-13T00:08:41.852Z,5.72
2022-12-13T00:11:12.328Z,5.68
2022-12-13T00:13:40.191Z,5.57
2022-12-13T00:16:10.280Z,5.63
2022-12-13T00:18:37.152Z,5.05
2022-12-13T00:21:14.603Z,5.07
2022-12-13T00:23:42.046Z,5.80
2022-12-13T00:26:13.208Z,5.65
2022-12-13T00:28:40.871Z,6.43
2022-12-13T00:31:44.676Z,5.50
2022-12-13T00:33:57.597Z,5.78
2022-12-13T00:36:29.626Z,5.20
2022-12-13T00:39:03.341Z,5.22
2022-12-13T00:41:33.077Z,5.28
2022-12-13T00:44:00.610Z,5.65
2022-12-13T00:46:28.841Z,5.53
2022-12-13T00:48:58.108Z,5.00
2022-12-13T00:51:25.901Z,4.93
2022-12-13T00:53:53.648Z,5.35
2022-12-13T00:56:25.683Z,5.25
2022-12-13T00:58:53.444Z,5.22
2022-12-13T01:01:24.567Z,4.63
2022-12-13T01:03:55.768Z,4.93
2022-12-13T01:06:36.494Z,4.93
2022-12-13T01:09:05.577Z,4.78
2022-12-13T01:11:32.745Z,4.78
2022-12-13T01:13:59.705Z,5.00
2022-12-13T01:16:26.706Z,5.07
2022-12-13T01:18:53.612Z,4.38
2022-12-13T01:21:22.339Z,4.57
2022-12-13T01:23:49.503Z,4.55
2022-12-13T01:26:20.677Z,4.82
2022-12-13T01:28:48.718Z,5.15
2022-12-13T01:31:18.723Z,4.05
2022-12-13T01:33:46.101Z,4.40
2022-12-13T01:36:27.352Z,4.50
2022-12-13T01:38:58.354Z,4.55
2022-12-13T01:41:28.457Z,4.53
2022-12-13T01:44:01.121Z,4.07
2022-12-13T01:46:28.805Z,4.05
2022-12-13T01:49:04.299Z,4.45
2022-12-13T01:51:49.375Z,4.75
2022-12-13T01:54:23.119Z,3.90
2022-12-13T01:57:00.756Z,4.57
2022-12-13T01:59:28.933Z,4.60
2022-12-13T02:02:01.044Z,4.60
2022-12-13T02:04:43.914Z,5.55
2022-12-13T02:07:22.523Z,4.50
2022-12-13T02:09:56.322Z,5.20
2022-12-13T02:12:29.340Z,5.90
2022-12-13T02:15:01.278Z,4.97
2022-12-13T02:20:47.731Z,4.13
2022-12-13T02:23:29.676Z,5.13
2022-12-13T02:26:34.111Z,3.58
2022-12-13T02:29:30.548Z,4.00
2022-12-13T02:32:24.457Z,3.80
2022-12-13T02:35:23.826Z,3.80
2022-12-13T02:37:54.874Z,3.90
2022-12-13T02:40:37.942Z,4.30
2022-12-13T02:43:23.110Z,4.30
2022-12-13T02:45:54.705Z,4.00
2022-12-13T02:48:28.994Z,4.57
2022-12-13T02:50:57.291Z,4.95
2022-12-13T02:53:25.640Z,4.38
2022-12-13T02:55:52.514Z,4.72
2022-12-13T02:58:34.433Z,4.78
2022-12-13T03:01:27.869Z,4.78
2022-12-13T03:04:11.991Z,4.78
2022-12-13T03:06:54.474Z,4.93
2022-12-13T03:09:48.386Z,4.50
2022-12-13T03:12:49.799Z,4.03
2022-12-13T03:15:22.783Z,4.78
2022-12-13T03:17:59.824Z,4.82
2022-12-13T03:20:29.311Z,4.60
2022-12-13T03:22:57.620Z,4.65
2022-12-13T03:25:30.977Z,5.03
2022-12-13T03:28:02.002Z,4.35
2022-12-13T03:30:30.298Z,4.07
2022-12-13T03:32:57.180Z,4.93
2022-12-13T03:35:25.105Z,4.47
2022-12-13T03:38:02.949Z,4.80
2022-12-13T03:40:31.292Z,4.13
2022-12-13T03:42:58.475Z,4.60
2022-12-13T03:45:25.314Z,4.80
2022-12-13T03:47:52.166Z,5.50
2022-12-13T03:50:26.541Z,4.72
2022-12-13T03:53:01.844Z,5.60
2022-12-13T03:55:29.766Z,4.95
2022-12-13T03:57:56.923Z,4.78
2022-12-13T04:00:24.184Z,5.07
2022-12-13T04:02:51.420Z,4.53
2022-12-13T04:05:18.657Z,5.25
2022-12-13T04:07:48.302Z,5.00
2022-12-13T04:10:25.984Z,5.00
2022-12-13T04:13:13.240Z,4.70
2022-12-13T04:15:41.121Z,5.30
2022-12-13T04:18:08.068Z,4.57
2022-12-13T04:20:35.095Z,5.30
2022-12-13T04:23:10.460Z,5.05
2022-12-13T04:25:38.777Z,5.38
2022-12-13T04:28:06.243Z,5.43
2022-12-13T04:30:33.530Z,4.45
2022-12-13T04:33:01.146Z,4.45
2022-12-13T04:35:28.658Z,4.55
2022-12-13T04:37:57.443Z,4.75
2022-12-13T04:40:24.679Z,4.97
2022-12-13T04:42:54.191Z,5.32
2022-12-13T04:45:23.702Z,4.60
2022-12-13T04:47:51.597Z,4.97
2022-12-13T04:50:19.068Z,4.53
2022-12-13T04:52:46.403Z,4.55
2022-12-13T04:55:13.875Z,4.85
2022-12-13T04:57:41.214Z,4.75
2022-12-13T05:00:11.719Z,5.15
2022-12-13T05:02:38.721Z,4.43
2022-12-13T05:05:06.095Z,4.47
2022-12-13T05:07:33.243Z,4.47
2022-12-13T05:10:00.574Z,4.85
2022-12-13T05:12:28.793Z,4.90
2022-12-13T05:14:56.005Z,4.45
2022-12-13T05:17:23.199Z,4.70
2022-12-13T05:19:51.628Z,4.18
2022-12-13T05:22:20.752Z,4.13
2022-12-13T05:24:48.605Z,4.45
2022-12-13T05:27:24.813Z,5.15
2022-12-13T05:30:02.785Z,5.18
2022-12-13T05:32:43.330Z,4.50
2022-12-13T05:35:21.824Z,4.90
2022-12-13T05:37:54.376Z,4.22
2022-12-13T05:42:49.488Z,3.47
2022-12-13T05:45:19.049Z,3.58
2022-12-13T05:47:46.658Z,3.65
2022-12-13T05:50:17.080Z,4.57
2022-12-13T05:52:44.477Z,4.05
2022-12-13T05:55:12.544Z,4.40
2022-12-13T05:57:39.375Z,4.00
2022-12-13T06:00:29.372Z,3.63
2022-12-13T06:02:56.707Z,3.47
2022-12-13T06:10:44.283Z,3.60
2022-12-13T06:13:31.560Z,4.38
2022-12-13T06:16:05.665Z,3.83
2022-12-13T06:18:34.967Z,4.03
2022-12-13T06:21:07.198Z,4.13
2022-12-13T06:23:35.248Z,4.38
2022-12-13T06:26:06.392Z,4.75
2022-12-13T06:28:33.642Z,4.22
2022-12-13T06:31:02.581Z,4.50
2022-12-13T06:33:30.240Z,4.00
2022-12-13T06:35:58.631Z,3.75
2022-12-13T06:38:31.330Z,3.65
2022-12-13T06:41:14.339Z,3.72
2022-12-13T06:43:51.449Z,4.00
2022-12-13T06:46:18.455Z,3.90
2022-12-13T06:48:46.731Z,3.50
2022-12-13T06:51:22.576Z,3.90
2022-12-13T06:53:50.430Z,4.07
2022-12-13T06:56:17.675Z,3.20
2022-12-13T06:58:45.127Z,3.88
2022-12-13T07:01:23.723Z,12.63
2022-12-13T07:03:54.516Z,4.65
2022-12-13T07:06:23.160Z,3.88
2022-12-13T07:08:52.600Z,5.40
2022-12-13T07:11:23.526Z,3.83
2022-12-13T07:13:55.910Z,4.10
2022-12-13T07:16:23.991Z,5.35
2022-12-13T07:19:01.099Z,7.90
2022-12-13T07:21:29.673Z,8.43
2022-12-13T07:23:56.623Z,5.03
2022-12-13T07:26:23.785Z,6.05
2022-12-13T07:28:55.049Z,6.90
2022-12-13T07:31:22.879Z,7.05
2022-12-13T07:33:50.004Z,6.90
2022-12-13T07:36:22.343Z,6.22
2022-12-13T07:38:53.600Z,5.60
2022-12-13T07:41:24.162Z,4.10
2022-12-13T07:43:55.168Z,4.38
2022-12-13T07:49:05.091Z,4.45
2022-12-13T07:54:06.152Z,4.32
2022-12-13T07:56:34.028Z,4.53
2022-12-13T07:59:00.904Z,4.10
2022-12-13T08:01:28.602Z,5.28
2022-12-13T08:03:55.476Z,5.45
2022-12-13T08:06:22.270Z,7.43
2022-12-13T08:08:51.233Z,7.50
2022-12-13T08:11:18.220Z,6.85
2022-12-13T08:13:45.211Z,5.70
2022-12-13T08:16:25.963Z,5.93
2022-12-13T08:19:02.191Z,5.85
2022-12-13T08:24:24.984Z,8.90
2022-12-13T08:26:51.936Z,8.68
2022-12-13T08:29:23.438Z,8.00
2022-12-13T08:32:02.378Z,10.07
2022-12-13T08:34:29.614Z,10.63
2022-12-13T08:37:01.852Z,8.45
2022-12-13T08:39:35.608Z,6.38
2022-12-13T08:42:15.365Z,6.15
2022-12-13T08:44:51.506Z,5.53
2022-12-13T08:47:26.470Z,5.45
2022-12-13T08:49:55.223Z,6.20
2022-12-13T08:52:23.840Z,5.72
2022-12-13T08:54:51.051Z,5.10
2022-12-13T08:57:18.433Z,5.38
2022-12-13T08:59:45.386Z,6.38
2022-12-13T09:02:13.997Z,6.07
2022-12-13T09:04:41.139Z,8.05
2022-12-13T09:07:08.097Z,5.72
2022-12-13T09:09:34.962Z,5.80
2022-12-13T09:12:10.331Z,6.28
2022-12-13T09:14:38.395Z,6.80
2022-12-13T09:17:24.996Z,6.65
2022-12-13T09:19:58.142Z,6.22
2022-12-13T09:22:33.478Z,7.78
2022-12-13T09:25:02.557Z,7.03
2022-12-13T09:27:39.431Z,6.72
2022-12-13T09:30:08.231Z,7.70
2022-12-13T09:32:35.177Z,7.43
2022-12-13T09:35:01.982Z,6.57
2022-12-13T09:37:29.880Z,6.85
2022-12-13T09:39:56.638Z,6.90
2022-12-13T09:42:30.739Z,5.75
2022-12-13T09:45:22.634Z,5.38
2022-12-13T09:48:01.221Z,5.25
2022-12-13T09:50:37.772Z,4.80
2022-12-13T09:53:11.922Z,5.47
2022-12-13T09:55:49.863Z,4.93
2022-12-13T09:58:31.989Z,5.45
2022-12-13T10:00:59.584Z,5.72
2022-12-13T10:03:27.211Z,5.20
2022-12-13T10:06:12.728Z,10.07
2022-12-13T10:08:46.119Z,5.35
2022-12-13T10:11:18.177Z,4.90
2022-12-13T10:14:06.612Z,4.50
2022-12-13T10:16:37.193Z,4.15
2022-12-13T10:19:30.055Z,5.28
2022-12-13T10:22:02.295Z,4.80
2022-12-13T10:24:56.842Z,4.70
2022-12-13T10:27:40.399Z,4.65
2022-12-13T10:30:10.969Z,4.82
2022-12-13T10:32:52.759Z,4.85
2022-12-13T10:35:27.540Z,5.68
2022-12-13T10:37:56.397Z,4.97
2022-12-13T10:40:33.915Z,4.20
2022-12-13T10:43:20.368Z,4.75
2022-12-13T10:45:59.999Z,5.18
2022-12-13T10:48:47.098Z,5.40
2022-12-13T10:51:17.134Z,5.13
2022-12-13T10:53:53.528Z,4.95
2022-12-13T10:56:23.960Z,6.07
2022-12-13T10:59:16.994Z,5.57
2022-12-13T11:01:45.031Z,5.22
2022-12-13T11:04:27.393Z,5.25
2022-12-13T11:06:56.219Z,5.10
2022-12-13T11:09:29.250Z,4.80
2022-12-13T11:12:17.829Z,5.50
2022-12-13T11:14:56.582Z,5.03
2022-12-13T11:17:26.569Z,4.80
2022-12-13T11:19:57.587Z,5.22
2022-12-13T11:22:30.878Z,5.35
2022-12-13T11:25:22.420Z,5.72
2022-12-13T11:28:01.189Z,4.80
2022-12-13T11:30:56.041Z,6.05
2022-12-13T11:33:51.973Z,6.10
2022-12-13T11:36:27.760Z,3.85
2022-12-13T11:39:29.803Z,4.15
2022-12-13T11:42:14.678Z,5.53
2022-12-13T11:45:00.235Z,4.88
2022-12-13T11:47:35.886Z,4.57
2022-12-13T11:50:20.498Z,6.22
2022-12-13T11:53:05.910Z,6.78
2022-12-13T11:55:47.532Z,5.70
2022-12-13T12:01:19.650Z,4.80
2022-12-13T12:04:00.385Z,5.25
2022-12-13T12:06:35.310Z,4.70
2022-12-13T12:09:11.017Z,4.97
2022-12-13T12:12:06.593Z,4.38
2022-12-13T12:14:36.082Z,4.15
2022-12-13T12:17:04.249Z,5.30
2022-12-13T12:19:37.093Z,6.40
2022-12-13T12:22:15.383Z,4.18
2022-12-13T12:24:44.287Z,4.28
2022-12-13T12:27:29.330Z,4.95
2022-12-13T12:30:22.666Z,4.85
2022-12-13T12:33:05.052Z,6.65
2022-12-13T12:35:50.435Z,4.97
2022-12-13T12:38:23.707Z,5.45
2022-12-13T12:41:19.362Z,5.57
2022-12-13T12:44:11.231Z,5.07
2022-12-13T12:47:18.012Z,4.85
2022-12-13T12:49:55.470Z,5.22
2022-12-13T12:52:47.537Z,5.55
2022-12-13T12:57:57.128Z,6.18
2022-12-13T13:00:35.269Z,5.70
2022-12-13T13:03:27.035Z,5.60
2022-12-13T13:06:05.254Z,5.18
2022-12-13T13:08:59.131Z,5.15
2022-12-13T13:11:29.758Z,4.80
2022-12-13T13:14:22.640Z,4.60
2022-12-13T13:16:49.429Z,6.60
2022-12-13T13:19:16.683Z,4.22
2022-12-13T13:21:55.465Z,5.30
2022-12-13T13:24:31.494Z,4.50
2022-12-13T13:27:10.635Z,14.50
2022-12-13T13:29:43.625Z,7.47
2022-12-13T13:32:11.207Z,4.18
2022-12-13T13:34:44.427Z,4.68
2022-12-13T13:37:27.912Z,4.72
2022-12-13T13:40:30.942Z,5.10
2022-12-13T13:43:10.609Z,4.90
2022-12-13T13:45:49.502Z,4.88
2022-12-13T13:48:37.256Z,5.18
2022-12-13T13:51:28.108Z,4.90
2022-12-13T13:54:16.597Z,5.35
2022-12-13T13:57:12.632Z,5.50
2022-12-13T13:59:54.291Z,5.90
2022-12-13T14:02:49.022Z,5.25
2022-12-13T14:05:36.301Z,6.07
2022-12-13T14:08:20.504Z,5.65
2022-12-13T14:11:02.642Z,5.55
2022-12-13T14:14:22.396Z,5.78
2022-12-13T14:16:58.327Z,6.15
2022-12-13T14:20:18.888Z,5.50
2022-12-13T14:23:22.294Z,5.90
2022-12-13T14:25:57.634Z,5.68
2022-12-13T14:28:41.658Z,5.80
2022-12-13T14:31:22.633Z,6.43
2022-12-13T14:33:51.926Z,6.10
2022-12-13T14:36:27.912Z,6.15
2022-12-13T14:39:24.427Z,6.90
2022-12-13T14:41:56.906Z,6.53
2022-12-13T14:44:29.748Z,6.50
2022-12-13T14:47:04.718Z,6.50
2022-12-13T14:49:35.457Z,6.30
2022-12-13T14:52:09.654Z,6.80
2022-12-13T14:54:48.900Z,7.32
2022-12-13T14:57:22.156Z,9.82
2022-12-13T14:59:52.175Z,15.27
2022-12-13T15:02:32.040Z,9.60
2022-12-13T15:05:01.537Z,9.13
2022-12-13T15:07:42.169Z,8.15
2022-12-13T15:10:15.229Z,9.10
2022-12-13T15:12:44.350Z,9.30
2022-12-13T15:15:29.151Z,7.93
2022-12-13T15:18:29.691Z,8.43
2022-12-13T15:20:58.086Z,9.63
2022-12-13T15:23:28.067Z,8.63
2022-12-13T15:26:01.913Z,9.00
2022-12-13T15:28:32.157Z,9.65
2022-12-13T15:31:00.956Z,9.27
2022-12-13T15:33:34.345Z,8.20
2022-12-13T15:36:18.322Z,8.38
2022-12-13T15:38:57.040Z,8.50
2022-12-13T15:41:32.975Z,8.63
2022-12-13T15:44:25.571Z,8.15
2022-12-13T15:46:58.400Z,8.18
2022-12-13T15:49:42.693Z,9.48
2022-12-13T15:52:15.533Z,7.82
2022-12-13T15:54:53.726Z,8.35
2022-12-13T15:57:26.668Z,8.57
2022-12-13T16:00:29.091Z,8.95
2022-12-13T16:03:01.808Z,7.85
2022-12-13T16:05:39.047Z,7.82
2022-12-13T16:08:13.994Z,8.55
2022-12-13T16:10:47.210Z,8.55
2022-12-13T16:13:26.194Z,8.20
2022-12-13T16:16:10.005Z,8.15
2022-12-13T16:18:55.337Z,7.93
2022-12-13T16:21:22.387Z,8.65
2022-12-13T16:23:49.385Z,7.90
2022-12-13T16:26:22.818Z,8.93
2022-12-13T16:28:49.627Z,8.73
2022-12-13T16:31:18.955Z,8.85
2022-12-13T16:33:45.921Z,9.88
2022-12-13T16:36:17.969Z,9.57
2022-12-13T16:38:44.832Z,9.80
2022-12-13T16:41:12.157Z,8.88
2022-12-13T16:43:46.772Z,9.00
2022-12-13T16:47:11.911Z,10.40
2022-12-13T16:49:05.514Z,9.40
2022-12-13T16:51:32.318Z,10.00
2022-12-13T16:53:59.101Z,9.38
2022-12-13T16:56:25.850Z,9.15
2022-12-13T16:58:52.798Z,9.40
2022-12-13T17:01:21.040Z,8.93
2022-12-13T17:03:48.283Z,8.98
2022-12-13T17:06:19.074Z,8.98
2022-12-13T17:08:45.893Z,9.83
2022-12-13T17:11:17.768Z,9.60
2022-12-13T17:13:47.505Z,9.95
2022-12-13T17:16:14.802Z,8.77
2022-12-13T17:18:41.995Z,10.13
2022-12-13T17:21:10.915Z,10.18
2022-12-13T17:23:37.859Z,9.70
2022-12-13T17:26:07.115Z,9.85
2022-12-13T17:28:34.785Z,11.30
2022-12-13T17:31:10.236Z,9.82
2022-12-13T17:33:37.260Z,10.93
2022-12-13T17:36:05.639Z,11.40
2022-12-13T17:38:33.009Z,10.45
2022-12-13T17:41:00.781Z,10.85
2022-12-13T17:43:36.066Z,12.02
2022-12-13T17:46:06.579Z,12.43
2022-12-13T17:48:40.219Z,12.07
2022-12-13T17:51:10.031Z,11.88
2022-12-13T17:53:39.665Z,12.13
2022-12-13T17:56:12.031Z,12.55
2022-12-13T17:58:39.415Z,14.48
2022-12-13T18:01:25.264Z,14.32
2022-12-13T18:03:55.779Z,15.52
2022-12-13T18:06:24.310Z,16.50
2022-12-13T18:08:51.529Z,15.82
2022-12-13T18:11:35.641Z,15.70
2022-12-13T18:14:04.771Z,13.88
2022-12-13T18:16:38.924Z,14.13
2022-12-13T18:19:08.285Z,17.63
2022-12-13T18:21:36.767Z,15.90
2022-12-13T18:24:05.734Z,15.30
2022-12-13T18:26:32.776Z,15.30
2022-12-13T18:28:59.605Z,15.90
2022-12-13T18:31:27.070Z,15.88
2022-12-13T18:33:54.952Z,14.93
2022-12-13T18:36:24.594Z,14.75
2022-12-13T18:38:52.059Z,15.65
2022-12-13T18:41:22.734Z,14.80
2022-12-13T18:43:59.402Z,14.93
2022-12-13T18:46:28.370Z,15.05
2022-12-13T18:48:55.755Z,15.43
2022-12-13T18:51:23.433Z,14.88
2022-12-13T18:53:51.957Z,14.40
2022-12-13T18:56:19.716Z,13.43
2022-12-13T18:58:48.431Z,14.60
2022-12-13T19:01:17.231Z,15.57
2022-12-13T19:03:45.951Z,14.85
2022-12-13T19:06:19.000Z,15.75
2022-12-13T19:08:57.959Z,14.55
2022-12-13T19:11:29.024Z,14.63
2022-12-13T19:13:56.417Z,16.40
2022-12-13T19:16:25.203Z,15.13
2022-12-13T19:18:52.381Z,14.55
2022-12-13T19:21:21.554Z,15.40
2022-12-13T19:23:56.552Z,15.98
2022-12-13T19:26:25.505Z,16.95
2022-12-13T19:28:52.597Z,17.52
2022-12-13T19:31:19.806Z,15.98
2022-12-13T19:33:47.770Z,17.20
2022-12-13T19:36:15.708Z,17.45
2022-12-13T19:38:42.825Z,18.33
2022-12-13T19:41:12.034Z,16.55
2022-12-13T19:43:38.906Z,19.23
2022-12-13T19:46:06.045Z,20.25
2022-12-13T19:48:34.434Z,21.83
2022-12-13T19:51:02.488Z,24.17
2022-12-13T19:53:30.357Z,22.85
2022-12-13T19:55:58.104Z,20.48
2022-12-13T19:58:25.902Z,20.45
2022-12-13T20:00:53.018Z,20.88
2022-12-13T20:03:19.952Z,20.42
2022-12-13T20:05:59.938Z,21.40
2022-12-13T20:08:26.719Z,20.85
2022-12-13T20:10:58.963Z,22.42
2022-12-13T20:13:26.705Z,24.20
2022-12-13T20:15:53.922Z,25.33
2022-12-13T20:18:21.882Z,24.55
2022-12-13T20:21:10.567Z,23.17
2022-12-13T20:23:37.336Z,21.52
2022-12-13T20:26:06.733Z,21.30
2022-12-13T20:28:33.559Z,22.55
2022-12-13T20:31:11.235Z,22.55
2022-12-13T20:33:38.827Z,22.08
2022-12-13T20:36:27.629Z,22.35
2022-12-13T20:38:57.087Z,20.42
2022-12-13T20:41:26.233Z,22.65
2022-12-13T20:43:54.514Z,21.70
2022-12-13T20:46:21.886Z,20.55
2022-12-13T20:48:49.505Z,20.98
2022-12-13T20:51:18.808Z,22.75
2022-12-13T20:53:47.193Z,22.58
2022-12-13T20:56:16.819Z,21.17
2022-12-13T20:58:44.413Z,22.65
2022-12-13T21:01:31.753Z,21.20
2022-12-13T21:04:00.424Z,21.13
2022-12-13T21:06:32.205Z,21.15
2022-12-13T21:09:02.787Z,21.85
2022-12-13T21:11:35.625Z,22.17
2022-12-13T21:14:10.220Z,20.27
2022-12-13T21:16:43.036Z,20.23
2022-12-13T21:19:12.656Z,21.42
2022-12-13T21:21:39.617Z,21.88
2022-12-13T21:24:07.335Z,20.67
2022-12-13T21:26:35.980Z,28.48
2022-12-13T21:29:06.752Z,21.48
2022-12-13T21:31:35.358Z,22.70
2022-12-13T21:34:03.400Z,22.08
2022-12-13T21:36:32.911Z,23.48
2022-12-13T21:39:01.867Z,20.67
2022-12-13T21:41:29.208Z,19.90
2022-12-13T21:43:56.192Z,21.00
2022-12-13T21:46:31.288Z,20.92
2022-12-13T21:49:12.366Z,21.23
2022-12-13T21:51:43.242Z,20.23
2022-12-13T21:54:12.998Z,20.52
2022-12-13T21:57:08.782Z,20.30
2022-12-13T21:59:35.884Z,19.48
2022-12-13T22:02:11.740Z,19.73
2022-12-13T22:04:53.257Z,18.55
2022-12-13T22:07:25.483Z,20.67
2022-12-13T22:09:53.415Z,20.67
2022-12-13T22:12:35.482Z,18.52
2022-12-13T22:15:04.633Z,20.30
2022-12-13T22:17:35.659Z,21.27
2022-12-13T22:20:05.363Z,20.00
2022-12-13T22:22:32.811Z,19.48
2022-12-13T22:24:59.977Z,19.92
2022-12-13T22:27:27.236Z,19.23
2022-12-13T22:29:57.194Z,18.45
2022-12-13T22:32:27.057Z,19.70
2022-12-13T22:34:54.489Z,19.13
2022-12-13T22:37:21.465Z,19.70
2022-12-13T22:39:48.425Z,20.13
2022-12-13T22:42:15.701Z,19.65
2022-12-13T22:44:42.570Z,20.08
2022-12-13T22:47:09.348Z,21.48
2022-12-13T22:49:36.092Z,20.38
2022-12-13T22:52:02.937Z,20.95
2022-12-13T22:54:29.692Z,21.33
2022-12-13T22:56:56.419Z,19.88
2022-12-13T22:59:23.222Z,20.55
2022-12-13T23:01:50.169Z,21.25
2022-12-13T23:04:17.001Z,21.48
2022-12-13T23:06:43.799Z,20.17
2022-12-13T23:09:12.908Z,19.77
2022-12-13T23:11:58.636Z,21.05
2022-12-13T23:14:31.425Z,21.00
2022-12-13T23:16:58.771Z,20.35
2022-12-13T23:19:51.597Z,20.35
2022-12-13T23:22:13.042Z,20.38
2022-12-13T23:24:39.796Z,21.00
2022-12-13T23:27:06.571Z,18.75
2022-12-13T23:29:33.372Z,20.02
2022-12-13T23:32:00.126Z,35.03
2022-12-13T23:34:26.886Z,19.45
2022-12-13T23:36:53.670Z,21.90
2022-12-13T23:39:20.446Z,18.65
2022-12-13T23:41:47.253Z,19.85
2022-12-13T23:44:14.115Z,19.55
2022-12-13T23:46:41.030Z,19.45
2022-12-13T23:49:08.744Z,18.52
2022-12-13T23:51:37.838Z,20.10
2022-12-13T23:54:06.118Z,18.63
2022-12-13T23:56:33.074Z,19.10
2022-12-13T23:59:00.046Z,19.02
